Time;durP1;ratioP1;P1;durP2;ratioP2;P2;SDS_P1;SDS_P2;PMS_P1;PMS_P2;Temp;Humidity;BMP_temperature;BMP_pressure;BME280_temperature;BME280_humidity;BME280_pressure;Samples;Min_cycle;Max_cycle;Signal;HPM_P1;HPM_P2
2021/05/10 00:01:13;;;;;;;3.00;2.70;;;18.20;66.40;;;;;;5112800;28;20214;-73
2021/05/10 00:03:39;;;;;;;4.53;3.03;;;18.20;66.70;;;;;;5112533;28;20203;-73
2021/05/10 00:06:05;;;;;;;2.70;2.43;;;18.20;66.90;;;;;;5113043;28;20267;-73
2021/05/10 00:08:31;;;;;;;2.63;2.33;;;18.20;66.30;;;;;;5113161;28;20498;-73
2021/05/10 00:10:56;;;;;;;2.97;2.30;;;18.10;66.10;;;;;;5113561;28;20513;-73
2021/05/10 00:13:23;;;;;;;4.40;2.60;;;18.10;66.40;;;;;;5113124;28;20211;-73
2021/05/10 00:15:49;;;;;;;3.90;2.73;;;18.10;66.60;;;;;;5105486;28;20529;-72
2021/05/10 00:18:17;;;;;;;5.33;2.50;;;18.10;66.40;;;;;;5092136;28;20441;-75
2021/05/10 00:20:45;;;;;;;3.90;2.60;;;18.10;66.60;;;;;;5107686;28;20471;-73
2021/05/10 00:23:12;;;;;;;3.93;2.53;;;18.10;66.60;;;;;;5113060;28;20432;-73
2021/05/10 00:25:38;;;;;;;3.60;2.53;;;18.10;66.00;;;;;;5112294;28;20452;-74
2021/05/10 00:28:05;;;;;;;4.50;2.50;;;18.20;65.70;;;;;;5111384;28;20420;-72
2021/05/10 00:30:32;;;;;;;4.73;2.47;;;18.20;65.70;;;;;;5110721;28;20451;-73
2021/05/10 00:32:58;;;;;;;4.17;2.47;;;18.20;65.80;;;;;;5112136;28;20523;-73
2021/05/10 00:35:24;;;;;;;2.77;2.60;;;18.30;65.70;;;;;;5112451;28;20463;-73
2021/05/10 00:37:50;;;;;;;3.77;2.70;;;18.20;65.80;;;;;;5115821;28;20425;-73
2021/05/10 00:40:25;;;;;;;3.50;2.67;;;18.20;65.60;;;;;;5117123;28;20468;-74
2021/05/10 00:42:51;;;;;;;3.80;3.13;;;18.20;65.80;;;;;;5113269;28;20440;-73
2021/05/10 00:45:17;;;;;;;4.10;2.47;;;18.10;66.00;;;;;;5111901;28;20507;-74
2021/05/10 00:47:44;;;;;;;4.97;2.90;;;18.20;65.60;;;;;;5111832;28;20433;-74
2021/05/10 00:50:12;;;;;;;4.40;2.90;;;18.10;65.70;;;;;;5111035;28;20456;-74
2021/05/10 00:52:38;;;;;;;2.57;2.13;;;18.10;66.00;;;;;;5111411;27;20427;-74
2021/05/10 00:55:08;;;;;;;2.97;2.63;;;18.00;66.40;;;;;;5109663;28;20932;-73
2021/05/10 00:57:39;;;;;;;3.60;2.67;;;18.00;66.90;;;;;;5110643;28;20504;-74
2021/05/10 01:00:07;;;;;;;4.30;3.00;;;17.90;67.00;;;;;;5111174;28;20470;-74
2021/05/10 01:02:34;;;;;;;3.77;2.90;;;17.80;67.60;;;;;;5111867;28;20420;-73
2021/05/10 01:05:00;;;;;;;2.97;2.70;;;17.80;67.90;;;;;;5113054;28;20427;-74
2021/05/10 01:07:26;;;;;;;3.10;2.53;;;17.70;68.00;;;;;;5111632;28;20436;-74
2021/05/10 01:09:51;;;;;;;4.40;2.73;;;17.70;67.70;;;;;;5111875;28;20198;-73
2021/05/10 01:12:17;;;;;;;4.50;3.13;;;17.60;67.70;;;;;;5111688;28;20305;-73
2021/05/10 01:14:43;;;;;;;5.40;3.50;;;17.50;68.00;;;;;;5111150;28;20593;-74
2021/05/10 01:17:09;;;;;;;4.43;3.30;;;17.40;69.40;;;;;;5098817;28;20457;-73
2021/05/10 01:19:36;;;;;;;7.30;3.40;;;17.30;69.90;;;;;;5110455;28;20209;-75
2021/05/10 01:22:04;;;;;;;3.60;2.90;;;17.30;69.80;;;;;;5111646;28;20186;-73
2021/05/10 01:24:31;;;;;;;4.40;3.10;;;17.30;69.80;;;;;;5111842;28;20559;-74
2021/05/10 01:26:57;;;;;;;5.37;2.77;;;17.20;69.50;;;;;;5109973;28;20440;-73
2021/05/10 01:29:23;;;;;;;9.13;3.87;;;17.20;69.10;;;;;;5111072;28;20468;-74
2021/05/10 01:31:48;;;;;;;3.50;2.77;;;17.10;68.80;;;;;;5096052;28;20421;-73
2021/05/10 01:34:15;;;;;;;5.90;3.13;;;17.00;69.90;;;;;;5089904;28;20466;-73
2021/05/10 01:36:40;;;;;;;3.97;2.83;;;17.00;70.40;;;;;;5105417;28;20182;-73
2021/05/10 01:39:07;;;;;;;4.07;3.13;;;16.90;70.80;;;;;;5109907;28;20786;-72
2021/05/10 01:41:33;;;;;;;4.63;3.07;;;16.90;70.20;;;;;;5109424;28;20273;-73
2021/05/10 01:43:59;;;;;;;4.87;3.37;;;16.80;70.10;;;;;;5099324;28;20456;-73
2021/05/10 01:46:25;;;;;;;3.87;2.87;;;16.80;69.80;;;;;;5127668;28;20429;-73
2021/05/10 01:48:50;;;;;;;5.00;2.90;;;16.70;69.70;;;;;;5129614;28;20253;-73
2021/05/10 01:51:20;;;;;;;3.60;2.93;;;16.70;69.90;;;;;;5126894;27;20202;-74
2021/05/10 01:53:46;;;;;;;7.40;3.40;;;16.60;69.80;;;;;;5110465;28;20202;-73
2021/05/10 01:56:12;;;;;;;6.90;2.50;;;16.60;69.20;;;;;;5110338;28;20424;-74
2021/05/10 01:58:37;;;;;;;6.90;2.70;;;16.60;69.40;;;;;;5088743;28;20204;-74
2021/05/10 02:01:03;;;;;;;5.40;2.83;;;16.60;69.50;;;;;;5089957;28;20211;-73
2021/05/10 02:03:29;;;;;;;3.97;2.80;;;16.50;69.50;;;;;;5107983;28;20213;-76
2021/05/10 02:05:55;;;;;;;4.70;3.00;;;16.40;69.90;;;;;;5110653;28;20181;-73
2021/05/10 02:08:21;;;;;;;5.80;3.13;;;16.40;70.40;;;;;;5110737;28;20336;-74
2021/05/10 02:10:49;;;;;;;4.23;2.97;;;16.40;70.40;;;;;;5110831;28;20179;-74
2021/05/10 02:13:19;;;;;;;3.40;2.77;;;16.40;70.20;;;;;;5112868;28;20444;-73
2021/05/10 02:15:46;;;;;;;5.37;3.37;;;16.40;70.50;;;;;;5121655;28;20449;-73
2021/05/10 02:18:13;;;;;;;6.83;3.17;;;16.30;71.10;;;;;;5116318;28;20431;-72
2021/05/10 02:20:40;;;;;;;4.73;2.93;;;16.30;71.70;;;;;;5104914;28;20471;-73
2021/05/10 02:23:10;;;;;;;4.83;3.33;;;16.30;71.40;;;;;;5111207;28;20523;-74
2021/05/10 02:25:39;;;;;;;3.50;2.80;;;16.20;71.00;;;;;;5109982;28;20422;-74
2021/05/10 02:28:07;;;;;;;6.33;3.10;;;16.20;71.60;;;;;;5109120;28;20477;-72
2021/05/10 02:30:35;;;;;;;4.00;3.10;;;16.20;71.40;;;;;;5109979;28;20820;-73
2021/05/10 02:33:04;;;;;;;4.60;3.40;;;16.20;71.40;;;;;;5110529;28;20451;-74
2021/05/10 02:35:30;;;;;;;7.10;3.60;;;16.30;72.00;;;;;;5109622;28;20455;-74
2021/05/10 02:37:56;;;;;;;2.90;2.60;;;16.20;72.10;;;;;;5111919;28;20888;-72
2021/05/10 02:40:22;;;;;;;6.00;2.97;;;16.10;72.60;;;;;;5116226;28;20212;-73
2021/05/10 02:42:48;;;;;;;3.90;2.47;;;16.10;72.40;;;;;;5106723;28;20862;-74
2021/05/10 02:45:15;;;;;;;3.53;2.90;;;16.10;72.30;;;;;;5107530;28;20871;-74
2021/05/10 02:47:42;;;;;;;3.97;2.63;;;16.10;72.60;;;;;;5104606;28;20813;-72
2021/05/10 02:50:13;;;;;;;6.93;3.60;;;16.10;73.00;;;;;;5115804;28;20515;-72
2021/05/10 02:52:39;;;;;;;4.80;3.23;;;16.10;72.70;;;;;;5116450;28;20427;-72
2021/05/10 02:55:07;;;;;;;5.70;2.83;;;16.10;72.90;;;;;;5111433;28;20429;-72
2021/05/10 02:57:33;;;;;;;5.00;3.47;;;16.10;72.60;;;;;;5104048;28;20181;-73
2021/05/10 02:59:59;;;;;;;5.70;3.37;;;16.10;73.30;;;;;;5114857;28;20459;-73
2021/05/10 03:02:25;;;;;;;4.20;3.53;;;16.00;73.30;;;;;;5122598;28;20426;-73
2021/05/10 03:04:51;;;;;;;3.83;2.87;;;16.00;72.60;;;;;;5137229;28;20431;-73
2021/05/10 03:07:16;;;;;;;4.13;2.90;;;16.00;72.00;;;;;;5124529;28;20179;-73
2021/05/10 03:09:43;;;;;;;4.50;3.43;;;16.00;71.30;;;;;;5116812;28;20454;-73
2021/05/10 03:12:08;;;;;;;5.33;3.03;;;16.00;71.00;;;;;;5116397;27;20270;-74
2021/05/10 03:14:34;;;;;;;3.80;3.20;;;16.00;71.60;;;;;;5113752;28;20471;-74
2021/05/10 03:17:00;;;;;;;4.10;2.63;;;16.00;71.60;;;;;;5113170;28;20481;-73
2021/05/10 03:19:26;;;;;;;4.47;3.20;;;16.00;71.30;;;;;;5112980;28;20423;-73
2021/05/10 03:21:52;;;;;;;7.93;3.60;;;16.10;70.70;;;;;;5113480;28;20187;-72
2021/05/10 03:24:18;;;;;;;5.30;3.27;;;16.10;70.40;;;;;;5114820;28;20462;-73
2021/05/10 03:26:44;;;;;;;6.13;3.37;;;16.10;69.90;;;;;;5118371;28;20182;-73
2021/05/10 03:29:10;;;;;;;5.90;2.80;;;16.10;70.40;;;;;;5094977;28;20341;-73
2021/05/10 03:31:42;;;;;;;4.43;3.23;;;16.10;70.70;;;;;;5097719;28;20195;-73
2021/05/10 03:34:08;;;;;;;3.40;2.87;;;16.10;70.80;;;;;;5130970;28;20468;-73
2021/05/10 03:36:34;;;;;;;5.03;3.43;;;16.10;70.80;;;;;;5125931;28;20427;-72
2021/05/10 03:39:02;;;;;;;4.43;3.00;;;16.10;70.70;;;;;;5116360;28;20424;-74
2021/05/10 03:41:27;;;;;;;4.77;3.50;;;16.20;70.50;;;;;;5100712;28;20256;-73
2021/05/10 03:43:53;;;;;;;5.23;3.60;;;16.20;70.80;;;;;;5097982;28;20441;-73
2021/05/10 03:46:19;;;;;;;4.60;3.57;;;16.20;71.00;;;;;;5112072;28;20198;-73
2021/05/10 03:48:45;;;;;;;5.10;3.20;;;16.00;71.40;;;;;;5110282;28;20274;-74
2021/05/10 03:51:10;;;;;;;4.67;3.27;;;16.00;71.30;;;;;;5113338;28;20184;-74
2021/05/10 03:53:36;;;;;;;5.30;3.60;;;16.00;71.30;;;;;;5111284;28;20214;-74
2021/05/10 03:56:02;;;;;;;5.67;3.67;;;15.90;71.40;;;;;;5112835;28;21017;-73
2021/05/10 03:58:28;;;;;;;4.50;3.27;;;15.90;71.00;;;;;;5111670;28;20183;-72
2021/05/10 04:00:53;;;;;;;6.83;3.20;;;16.00;69.50;;;;;;5111118;28;20588;-73
2021/05/10 04:03:21;;;;;;;8.10;3.80;;;16.10;69.20;;;;;;5113763;28;20222;-74
2021/05/10 04:13:35;;;;;;;6.63;4.47;;;16.40;66.70;;;;;;5107763;28;20497;-73
2021/05/10 04:13:57;;;;;;;6.10;3.80;;;16.60;66.60;;;;;;5102856;28;20314;-73
2021/05/10 04:16:23;;;;;;;5.60;3.30;;;16.70;65.60;;;;;;5111791;28;20428;-73
2021/05/10 04:18:49;;;;;;;5.33;3.63;;;16.80;64.70;;;;;;5111771;28;20427;-73
2021/05/10 04:21:14;;;;;;;6.50;4.03;;;16.80;63.80;;;;;;5111755;28;20411;-72
2021/05/10 04:23:40;;;;;;;7.53;3.93;;;16.90;64.50;;;;;;5098607;28;20230;-73
2021/05/10 04:26:06;;;;;;;6.97;3.70;;;17.00;63.70;;;;;;5090006;28;20183;-74
2021/05/10 04:28:34;;;;;;;8.07;3.57;;;17.20;62.60;;;;;;5103841;28;20436;-73
2021/05/10 04:31:00;;;;;;;7.23;3.57;;;17.30;61.60;;;;;;5091274;28;20951;-73
2021/05/10 04:33:27;;;;;;;3.60;3.03;;;17.40;60.60;;;;;;5104354;28;20531;-73
2021/05/10 04:35:53;;;;;;;4.77;2.93;;;17.50;60.70;;;;;;5102547;28;20516;-74
2021/05/10 04:38:19;;;;;;;5.27;2.70;;;17.50;61.20;;;;;;5121310;28;20927;-73
2021/05/10 04:40:45;;;;;;;4.37;2.87;;;17.50;60.90;;;;;;5109719;28;20499;-73
2021/05/10 04:43:10;;;;;;;4.00;2.90;;;17.50;60.30;;;;;;5121014;28;20527;-74
2021/05/10 04:45:36;;;;;;;2.73;2.53;;;17.60;59.60;;;;;;5121011;28;20202;-74
2021/05/10 04:48:03;;;;;;;4.10;2.50;;;17.70;57.80;;;;;;5096897;28;20182;-73
2021/05/10 04:50:29;;;;;;;3.70;2.70;;;18.00;56.80;;;;;;5091510;28;20222;-71
2021/05/10 04:52:55;;;;;;;4.23;2.63;;;18.10;57.00;;;;;;5090968;28;20468;-71
2021/05/10 04:55:20;;;;;;;4.30;2.60;;;18.10;58.00;;;;;;5109693;28;20656;-71
2021/05/10 04:57:46;;;;;;;5.00;3.03;;;18.20;58.00;;;;;;5111117;28;20191;-70
2021/05/10 05:00:13;;;;;;;3.83;2.93;;;18.30;57.20;;;;;;5096619;28;20208;-71
2021/05/10 05:02:40;;;;;;;3.43;2.37;;;18.40;56.80;;;;;;5096670;28;20188;-71
2021/05/10 05:05:07;;;;;;;6.23;3.13;;;18.60;56.10;;;;;;5103582;28;20423;-71
2021/05/10 05:07:33;;;;;;;5.77;2.77;;;18.70;54.40;;;;;;5108130;28;20425;-70
2021/05/10 05:09:59;;;;;;;2.53;2.37;;;18.80;55.00;;;;;;5109479;28;20446;-70
2021/05/10 05:12:25;;;;;;;4.13;2.40;;;18.90;54.80;;;;;;5110826;28;20279;-71
2021/05/10 05:14:50;;;;;;;3.40;2.53;;;19.00;53.60;;;;;;5097100;28;20584;-70
2021/05/10 05:17:16;;;;;;;4.50;2.87;;;19.10;53.70;;;;;;5110676;28;20437;-71
2021/05/10 05:19:42;;;;;;;8.13;3.17;;;19.10;54.40;;;;;;5110870;28;20204;-71
2021/05/10 05:22:08;;;;;;;3.70;2.87;;;19.10;54.80;;;;;;5111332;28;20187;-71
2021/05/10 05:24:35;;;;;;;8.33;4.13;;;19.20;54.40;;;;;;5110285;28;20207;-69
2021/05/10 05:27:01;;;;;;;6.40;3.70;;;19.30;54.60;;;;;;5110310;28;20186;-73
2021/05/10 05:29:27;;;;;;;7.00;3.33;;;19.30;55.30;;;;;;5109391;28;20452;-74
2021/05/10 05:31:54;;;;;;;6.50;3.20;;;19.40;53.60;;;;;;5111064;28;20427;-72
2021/05/10 05:34:21;;;;;;;4.50;2.77;;;19.40;54.20;;;;;;5088916;28;20452;-73
2021/05/10 05:36:46;;;;;;;5.93;3.57;;;19.40;54.80;;;;;;5103691;28;20418;-73
2021/05/10 05:39:12;;;;;;;8.23;3.80;;;19.40;54.90;;;;;;5097347;28;20424;-72
2021/05/10 05:41:38;;;;;;;7.13;3.50;;;19.40;55.30;;;;;;5111296;28;20214;-74
2021/05/10 05:44:05;;;;;;;6.40;3.63;;;19.50;56.00;;;;;;5110439;28;20206;-73
2021/05/10 05:46:36;;;;;;;6.37;3.43;;;19.50;56.00;;;;;;5111383;28;20428;-71
2021/05/10 05:49:03;;;;;;;10.43;3.60;;;19.60;56.40;;;;;;5110857;28;20420;-74
2021/05/10 05:51:29;;;;;;;7.23;3.70;;;19.60;56.00;;;;;;5110694;28;20430;-72
2021/05/10 05:53:55;;;;;;;10.23;4.07;;;19.60;55.80;;;;;;5109043;28;20452;-73
2021/05/10 05:56:22;;;;;;;7.10;4.07;;;19.60;56.40;;;;;;5110476;28;20270;-73
2021/05/10 05:58:50;;;;;;;5.77;3.97;;;19.70;56.50;;;;;;5109926;28;20456;-73
2021/05/10 06:01:17;;;;;;;8.80;4.80;;;19.80;56.60;;;;;;5108865;28;20816;-72
2021/05/10 06:03:43;;;;;;;10.20;4.10;;;19.80;56.90;;;;;;5110394;28;21014;-74
2021/05/10 06:06:11;;;;;;;8.80;3.60;;;19.90;57.40;;;;;;5110254;28;20427;-72
2021/05/10 06:08:38;;;;;;;5.43;3.27;;;19.90;55.70;;;;;;5110575;28;20413;-72
2021/05/10 06:11:06;;;;;;;8.80;3.90;;;19.90;54.80;;;;;;5110360;28;20432;-73
2021/05/10 06:13:32;;;;;;;5.57;3.50;;;19.90;54.80;;;;;;5101290;28;20453;-72
2021/05/10 06:15:58;;;;;;;6.83;3.03;;;19.90;54.50;;;;;;5097402;28;21003;-71
2021/05/10 06:18:24;;;;;;;6.63;3.93;;;20.00;54.80;;;;;;5097305;28;20508;-72
2021/05/10 06:20:51;;;;;;;6.37;3.50;;;20.00;55.70;;;;;;5094090;28;20264;-74
2021/05/10 06:23:16;;;;;;;13.23;4.87;;;20.00;55.70;;;;;;5089886;28;20561;-73
2021/05/10 06:25:42;;;;;;;9.50;4.70;;;20.10;58.00;;;;;;5103668;28;20485;-73
2021/05/10 06:28:08;;;;;;;20.13;6.90;;;20.10;56.60;;;;;;5099054;28;20231;-73
2021/05/10 06:30:34;;;;;;;17.40;6.50;;;19.70;58.50;;;;;;5110107;28;20220;-71
2021/05/10 06:32:59;;;;;;;24.00;5.60;;;19.60;59.60;;;;;;5108256;28;20241;-73
2021/05/10 06:35:25;;;;;;;18.83;4.93;;;19.60;58.20;;;;;;5107113;28;20582;-74
2021/05/10 06:37:51;;;;;;;9.87;4.20;;;19.40;56.60;;;;;;5089540;28;20203;-74
2021/05/10 06:40:17;;;;;;;11.43;4.10;;;19.60;56.80;;;;;;5106849;28;20199;-72
2021/05/10 06:42:42;;;;;;;8.50;3.90;;;19.90;55.70;;;;;;5110936;28;20217;-73
2021/05/10 06:45:09;;;;;;;11.00;3.97;;;20.10;54.80;;;;;;5111008;28;20659;-72
2021/05/10 06:47:39;;;;;;;8.07;3.80;;;20.40;54.10;;;;;;5111551;28;20683;-71
2021/05/10 06:50:05;;;;;;;8.90;4.07;;;20.70;54.10;;;;;;5107392;28;21103;-72
2021/05/10 06:52:32;;;;;;;9.83;3.93;;;20.80;53.60;;;;;;5090852;28;20474;-74
2021/05/10 06:54:58;;;;;;;5.73;3.30;;;20.90;52.60;;;;;;5106838;28;20427;-74
2021/05/10 06:57:23;;;;;;;10.20;4.07;;;21.10;50.50;;;;;;5108999;28;20450;-74
2021/05/10 06:59:49;;;;;;;6.67;4.23;;;21.20;50.90;;;;;;5110926;28;20198;-73
2021/05/10 07:02:15;;;;;;;6.70;3.37;;;21.30;49.70;;;;;;5112077;28;20181;-72
2021/05/10 07:04:41;;;;;;;8.77;3.47;;;21.50;50.10;;;;;;5111574;28;20197;-75
2021/05/10 07:07:06;;;;;;;6.20;3.70;;;21.50;49.40;;;;;;5111147;28;20185;-75
2021/05/10 07:09:32;;;;;;;8.90;3.60;;;21.60;50.20;;;;;;5112101;28;20263;-74
2021/05/10 07:11:58;;;;;;;4.70;2.70;;;21.70;49.50;;;;;;5113303;28;20229;-71
2021/05/10 07:14:24;;;;;;;6.33;3.30;;;21.80;48.90;;;;;;5114694;28;20574;-75
2021/05/10 07:16:50;;;;;;;5.10;3.43;;;21.80;51.00;;;;;;5119141;28;20189;-72
2021/05/10 07:19:16;;;;;;;8.70;3.80;;;21.90;51.20;;;;;;5115190;28;20218;-72
2021/05/10 07:21:42;;;;;;;6.83;4.27;;;22.00;52.60;;;;;;5110695;28;20913;-73
2021/05/10 07:24:07;;;;;;;5.20;3.70;;;22.00;51.30;;;;;;5119974;28;20439;-72
2021/05/10 07:26:34;;;;;;;8.43;3.57;;;22.00;48.90;;;;;;5122265;28;20722;-73
2021/05/10 07:29:00;;;;;;;4.30;3.43;;;21.90;49.10;;;;;;5118389;28;20200;-72
2021/05/10 07:31:26;;;;;;;10.10;3.30;;;22.10;49.00;;;;;;5114431;28;20433;-74
2021/05/10 07:33:52;;;;;;;8.37;3.10;;;22.00;48.70;;;;;;5112445;28;20447;-72
2021/05/10 07:36:18;;;;;;;5.97;2.80;;;22.10;48.60;;;;;;5112642;28;20191;-73
2021/05/10 07:38:43;;;;;;;5.97;3.03;;;22.10;49.50;;;;;;5113975;28;20290;-73
2021/05/10 07:41:09;;;;;;;4.47;2.83;;;22.20;49.10;;;;;;5114338;28;20208;-74
2021/05/10 07:43:38;;;;;;;9.77;3.07;;;22.20;49.30;;;;;;5107307;28;20208;-72
2021/05/10 07:46:04;;;;;;;6.93;3.00;;;22.20;49.30;;;;;;5118956;28;20194;-73
2021/05/10 07:48:30;;;;;;;16.50;3.57;;;22.00;50.60;;;;;;5110687;28;20479;-71
2021/05/10 07:50:56;;;;;;;3.37;2.70;;;21.80;52.40;;;;;;5107380;28;20181;-76
2021/05/10 07:53:22;;;;;;;5.77;3.47;;;21.50;53.20;;;;;;5118999;28;20447;-74
2021/05/10 07:55:49;;;;;;;6.47;3.30;;;21.60;54.00;;;;;;5117139;28;20799;-75
2021/05/10 07:58:24;;;;;;;9.83;3.37;;;21.40;54.40;;;;;;5114581;28;20614;-73
2021/05/10 08:00:54;;;;;;;9.87;3.27;;;21.50;55.00;;;;;;5114676;28;20526;-74
2021/05/10 08:03:21;;;;;;;4.90;2.90;;;21.50;55.30;;;;;;5113998;28;20503;-74
2021/05/10 08:05:46;;;;;;;8.93;3.30;;;21.50;55.30;;;;;;5113755;28;20915;-73
2021/05/10 08:08:14;;;;;;;7.33;3.60;;;21.50;55.60;;;;;;5095601;28;20473;-73
2021/05/10 08:10:40;;;;;;;6.10;2.80;;;21.50;56.40;;;;;;5094450;28;20198;-73
2021/05/10 08:13:06;;;;;;;6.07;3.03;;;21.50;55.80;;;;;;5095844;28;20440;-73
2021/05/10 08:15:32;;;;;;;9.70;3.50;;;21.50;56.20;;;;;;5106690;28;20453;-73
2021/05/10 08:17:58;;;;;;;7.30;3.13;;;21.50;56.50;;;;;;5116855;28;20427;-73
2021/05/10 08:20:24;;;;;;;4.00;2.67;;;21.30;57.40;;;;;;5115780;28;20492;-72
2021/05/10 08:22:49;;;;;;;4.37;3.10;;;21.60;57.30;;;;;;5115342;28;20217;-73
2021/05/10 08:25:15;;;;;;;5.13;3.27;;;21.80;56.40;;;;;;5101227;28;20516;-72
2021/05/10 08:27:42;;;;;;;7.00;3.20;;;21.90;56.80;;;;;;5091963;28;20219;-73
2021/05/10 08:30:10;;;;;;;7.87;3.03;;;22.00;56.00;;;;;;5091858;28;20862;-74
2021/05/10 08:32:36;;;;;;;6.17;3.17;;;22.20;55.70;;;;;;5091486;28;20429;-72
2021/05/10 08:35:03;;;;;;;5.00;3.30;;;22.40;55.20;;;;;;5091565;28;20429;-75
2021/05/10 08:37:29;;;;;;;7.37;3.20;;;22.20;54.80;;;;;;5091818;28;20194;-73
2021/05/10 08:39:59;;;;;;;3.63;2.53;;;22.00;55.80;;;;;;5092220;28;20419;-73
2021/05/10 08:42:26;;;;;;;4.20;3.07;;;21.70;57.20;;;;;;5105103;28;20186;-71
2021/05/10 08:44:51;;;;;;;7.03;3.40;;;21.60;57.40;;;;;;5092079;28;20648;-73
2021/05/10 08:47:21;;;;;;;8.80;3.40;;;21.60;57.40;;;;;;5091916;28;20488;-72
2021/05/10 08:49:48;;;;;;;8.20;4.23;;;21.60;57.20;;;;;;5095669;28;20423;-75
2021/05/10 08:52:13;;;;;;;6.80;3.47;;;21.40;58.00;;;;;;5109440;28;20510;-73
2021/05/10 08:54:39;;;;;;;6.43;3.00;;;21.40;58.50;;;;;;5112665;28;20496;-74
2021/05/10 08:57:05;;;;;;;6.60;2.93;;;21.40;58.50;;;;;;5114761;28;20181;-72
2021/05/10 08:59:31;;;;;;;5.03;3.37;;;21.50;58.40;;;;;;5110970;28;20236;-72
2021/05/10 09:01:59;;;;;;;6.87;3.20;;;21.70;57.60;;;;;;5111156;28;20462;-74
2021/05/10 09:04:32;;;;;;;5.03;3.60;;;21.80;57.30;;;;;;5096893;28;20683;-74
2021/05/10 09:07:17;;;;;;;5.70;3.07;;;21.60;57.70;;;;;;5095306;28;20785;-75
2021/05/10 09:09:59;;;;;;;5.23;3.40;;;21.70;57.70;;;;;;5109682;28;20419;-74
2021/05/10 09:12:46;;;;;;;5.93;3.13;;;21.50;57.80;;;;;;5111828;28;20412;-74
2021/05/10 09:15:18;;;;;;;7.50;3.37;;;21.20;59.70;;;;;;5099428;28;20556;-72
2021/05/10 09:17:58;;;;;;;6.73;3.27;;;21.20;59.90;;;;;;5110528;28;20413;-73
2021/05/10 09:20:26;;;;;;;6.87;3.20;;;21.30;59.60;;;;;;5110370;28;20472;-73
2021/05/10 09:22:58;;;;;;;6.37;3.33;;;21.50;58.70;;;;;;5111774;28;20437;-71
2021/05/10 09:25:38;;;;;;;4.20;3.00;;;21.30;58.90;;;;;;5097427;28;21057;-73
2021/05/10 09:28:18;;;;;;;8.13;3.30;;;20.90;60.40;;;;;;5098715;28;21257;-74
2021/05/10 09:30:48;;;;;;;9.63;4.00;;;20.80;61.20;;;;;;5112783;28;20791;-75
2021/05/10 09:33:25;;;;;;;8.83;3.90;;;21.10;60.40;;;;;;5113875;28;20440;-73
2021/05/10 09:35:52;;;;;;;5.80;3.80;;;21.10;60.40;;;;;;5112957;28;20414;-73
2021/05/10 09:38:22;;;;;;;5.30;3.20;;;21.10;61.00;;;;;;5111579;28;20498;-74
2021/05/10 09:40:56;;;;;;;6.63;3.17;;;21.00;61.60;;;;;;5098094;28;20979;-73
2021/05/10 09:43:24;;;;;;;6.20;3.23;;;21.00;61.60;;;;;;5109744;28;20496;-73
2021/05/10 09:45:52;;;;;;;4.70;3.37;;;21.00;61.90;;;;;;5111021;28;20408;-74
2021/05/10 09:48:22;;;;;;;6.53;3.00;;;21.30;61.60;;;;;;5109449;28;20472;-72
2021/05/10 09:50:51;;;;;;;4.23;2.87;;;21.60;58.90;;;;;;5111726;28;20445;-74
2021/05/10 09:53:53;;;;;;;6.17;2.70;;;21.50;59.30;;;;;;5110604;28;21127;-72
2021/05/10 09:58:51;;;;;;;3.40;2.30;;;21.20;59.90;;;;;;5111312;28;20459;-73
2021/05/10 10:01:17;;;;;;;3.87;2.40;;;21.30;59.70;;;;;;5112065;28;20480;-74
2021/05/10 10:03:50;;;;;;;6.20;2.17;;;21.30;58.70;;;;;;5111849;28;20437;-74
2021/05/10 10:06:20;;;;;;;3.00;2.13;;;21.50;58.20;;;;;;5102836;28;20465;-73
2021/05/10 10:08:50;;;;;;;5.23;2.00;;;21.50;58.20;;;;;;5103502;28;20464;-75
2021/05/10 10:11:18;;;;;;;3.80;1.80;;;21.60;57.20;;;;;;5109472;28;20423;-73
2021/05/10 10:13:48;;;;;;;3.53;1.80;;;21.60;56.60;;;;;;5111660;28;20880;-72
2021/05/10 10:16:16;;;;;;;1.90;1.50;;;21.20;57.40;;;;;;5110995;28;20490;-74
2021/05/10 10:18:42;;;;;;;1.60;1.40;;;21.40;57.60;;;;;;5116520;28;20423;-73
2021/05/10 10:21:10;;;;;;;2.90;1.50;;;21.30;56.20;;;;;;5115938;28;20490;-72
2021/05/10 10:23:37;;;;;;;3.03;1.70;;;21.10;56.20;;;;;;5112177;28;20438;-74
2021/05/10 10:26:14;;;;;;;1.97;1.50;;;21.00;57.20;;;;;;5113404;28;20417;-74
2021/05/10 10:28:40;;;;;;;1.97;1.50;;;20.80;57.70;;;;;;5124459;28;20463;-73
2021/05/10 10:31:06;;;;;;;2.37;1.57;;;21.00;57.70;;;;;;5112821;28;20452;-72
2021/05/10 10:33:35;;;;;;;3.07;1.27;;;21.00;57.60;;;;;;5120620;28;20482;-72
2021/05/10 10:36:01;;;;;;;1.80;1.47;;;21.00;57.60;;;;;;5112274;28;20430;-73
2021/05/10 10:38:33;;;;;;;2.00;1.37;;;21.20;57.20;;;;;;5111418;28;20421;-72
2021/05/10 10:41:16;;;;;;;1.73;1.37;;;20.90;58.00;;;;;;5111699;28;20465;-75
2021/05/10 10:43:42;;;;;;;3.87;1.60;;;20.80;58.70;;;;;;5111500;28;20489;-73
2021/05/10 10:46:29;;;;;;;2.03;1.50;;;20.80;58.70;;;;;;5111944;28;20406;-74
2021/05/10 10:48:57;;;;;;;3.43;2.40;;;20.70;58.80;;;;;;5110880;28;20820;-72
2021/05/10 10:51:24;;;;;;;2.40;1.40;;;20.90;58.40;;;;;;5111712;28;20431;-71
2021/05/10 10:53:54;;;;;;;2.80;1.40;;;20.90;58.20;;;;;;5110226;28;20437;-74
2021/05/10 10:56:48;;;;;;;3.63;1.57;;;20.90;58.50;;;;;;5111388;28;20485;-73
2021/05/10 10:59:36;;;;;;;6.80;2.30;;;20.60;59.60;;;;;;5115872;28;20511;-72
2021/05/10 11:02:24;;;;;;;2.97;1.43;;;20.50;60.70;;;;;;5106068;28;20465;-73
2021/05/10 11:05:06;;;;;;;4.50;1.87;;;20.80;60.30;;;;;;5120726;28;20449;-73
2021/05/10 11:08:14;;;;;;;2.30;1.80;;;21.30;58.70;;;;;;5122229;28;20459;-71
2021/05/10 11:10:52;;;;;;;4.80;1.83;;;20.90;59.50;;;;;;5121925;28;20502;-72
2021/05/10 11:13:37;;;;;;;2.37;1.37;;;21.10;59.30;;;;;;5107857;28;20432;-74
2021/05/10 11:16:11;;;;;;;3.80;1.60;;;20.60;60.90;;;;;;5124314;28;20443;-72
2021/05/10 11:18:53;;;;;;;4.63;1.70;;;20.70;60.60;;;;;;5120212;28;20955;-73
2021/05/10 11:21:22;;;;;;;2.50;1.83;;;20.50;61.20;;;;;;5102215;28;20483;-74
2021/05/10 11:23:55;;;;;;;4.23;1.90;;;20.70;61.00;;;;;;5101106;28;20457;-74
2021/05/10 11:26:46;;;;;;;2.40;1.70;;;20.40;61.30;;;;;;5103002;28;20472;-74
2021/05/10 11:29:34;;;;;;;3.73;2.20;;;20.60;61.70;;;;;;5114715;28;20440;-72
2021/05/10 11:32:08;;;;;;;2.13;1.47;;;20.80;60.60;;;;;;5099244;28;20434;-73
2021/05/10 11:34:37;;;;;;;1.60;1.47;;;20.70;60.10;;;;;;5114271;28;20530;-73
2021/05/10 11:37:07;;;;;;;3.20;1.60;;;20.60;60.30;;;;;;5114161;28;20879;-73
2021/05/10 11:39:38;;;;;;;4.10;2.00;;;20.60;59.10;;;;;;5117692;27;20416;-73
2021/05/10 11:42:11;;;;;;;2.43;1.50;;;20.50;59.90;;;;;;5122335;28;20536;-73
2021/05/10 11:44:40;;;;;;;3.80;1.40;;;20.30;60.00;;;;;;5119615;28;20520;-74
2021/05/10 11:47:07;;;;;;;2.00;1.20;;;20.40;59.10;;;;;;5116055;28;20432;-74
2021/05/10 11:49:35;;;;;;;1.00;0.97;;;20.50;58.80;;;;;;5114628;28;20429;-74
2021/05/10 11:52:16;;;;;;;2.27;1.30;;;20.50;58.10;;;;;;5108277;28;20563;-73
2021/05/10 11:54:49;;;;;;;1.13;0.97;;;20.30;57.70;;;;;;5108947;28;20444;-73
2021/05/10 11:57:23;;;;;;;2.00;1.23;;;20.20;58.00;;;;;;5114321;28;20428;-73
2021/05/10 11:59:56;;;;;;;2.13;0.90;;;19.90;58.20;;;;;;5113944;27;20489;-71
2021/05/10 12:02:27;;;;;;;1.67;1.17;;;19.80;58.70;;;;;;5114112;28;20440;-73
2021/05/10 12:04:58;;;;;;;3.53;1.23;;;19.90;59.10;;;;;;5114077;28;20424;-73
2021/05/10 12:07:29;;;;;;;2.50;1.20;;;19.80;59.10;;;;;;5101007;28;20461;-75
2021/05/10 12:10:02;;;;;;;2.13;1.23;;;19.70;59.50;;;;;;5112028;28;20463;-74
2021/05/10 12:12:32;;;;;;;1.57;1.23;;;19.70;59.90;;;;;;5113691;27;20428;-71
2021/05/10 12:15:15;;;;;;;5.70;1.60;;;19.70;60.10;;;;;;5113609;28;20411;-72
2021/05/10 12:17:44;;;;;;;2.40;1.37;;;19.80;60.10;;;;;;5109122;28;20420;-74
2021/05/10 12:20:17;;;;;;;3.03;1.17;;;19.90;59.90;;;;;;5103924;28;20457;-71
2021/05/10 12:22:48;;;;;;;3.40;1.27;;;20.00;58.90;;;;;;5113792;28;20452;-74
2021/05/10 12:25:17;;;;;;;2.93;1.30;;;19.90;59.70;;;;;;5114165;28;20964;-73
2021/05/10 12:27:47;;;;;;;2.03;1.23;;;20.00;60.00;;;;;;5114351;28;20451;-72
2021/05/10 12:30:14;;;;;;;2.37;1.10;;;19.90;59.60;;;;;;5114274;28;20445;-74
2021/05/10 12:32:41;;;;;;;2.40;1.20;;;19.90;59.50;;;;;;5114520;28;20566;-73
2021/05/10 12:35:10;;;;;;;1.40;0.90;;;19.90;58.40;;;;;;5114919;28;20424;-74
2021/05/10 12:37:46;;;;;;;1.23;0.90;;;19.80;57.80;;;;;;5115198;28;20431;-73
2021/05/10 12:40:22;;;;;;;5.30;1.23;;;19.80;57.70;;;;;;5114004;28;20455;-72
2021/05/10 12:43:08;;;;;;;9.83;4.80;;;19.80;58.00;;;;;;5114338;28;20469;-74
2021/05/10 12:45:35;;;;;;;1.00;0.80;;;19.80;56.90;;;;;;5114290;28;20420;-73
2021/05/10 12:48:20;;;;;;;1.97;0.90;;;19.70;57.40;;;;;;5114612;28;20547;-71
2021/05/10 12:50:54;;;;;;;1.93;1.07;;;19.80;57.00;;;;;;5101888;28;20429;-75
2021/05/10 12:53:39;;;;;;;1.10;0.87;;;19.60;56.90;;;;;;5113727;28;20961;-73
2021/05/10 12:56:07;;;;;;;1.27;0.83;;;19.60;56.50;;;;;;5114969;28;20420;-72
2021/05/10 12:58:50;;;;;;;1.67;0.80;;;19.50;57.00;;;;;;5103777;28;20428;-70
2021/05/10 13:01:18;;;;;;;1.90;0.70;;;19.50;57.20;;;;;;5116880;28;20462;-73